createdAt,value
2019-03-21T00:00:51.691Z,9.43
2019-03-21T00:03:22.381Z,8.47
2019-03-21T00:05:53.070Z,8.90
2019-03-21T00:08:23.848Z,7.93
2019-03-21T00:11:57.792Z,8.57
2019-03-21T00:15:01.121Z,7.20
2019-03-21T00:17:38.934Z,8.17
2019-03-21T00:20:16.170Z,7.70
2019-03-21T00:22:46.951Z,6.50
2019-03-21T00:25:21.755Z,7.87
2019-03-21T00:27:52.482Z,8.17
2019-03-21T00:30:24.049Z,6.70
2019-03-21T00:32:54.998Z,8.40
2019-03-21T00:35:26.266Z,7.07
2019-03-21T00:37:57.146Z,8.18
2019-03-21T00:40:31.568Z,7.20
2019-03-21T00:43:04.505Z,6.83
2019-03-21T00:45:35.286Z,7.53
2019-03-21T00:48:08.651Z,6.90
2019-03-21T00:50:39.408Z,8.20
2019-03-21T00:53:10.200Z,8.08
2019-03-21T00:55:42.248Z,7.23
2019-03-21T00:58:13.022Z,7.20
2019-03-21T01:00:50.914Z,7.20
2019-03-21T01:03:21.968Z,7.55
2019-03-21T01:05:52.710Z,7.10
2019-03-21T01:08:23.486Z,8.27
2019-03-21T01:10:54.492Z,6.95
2019-03-21T01:13:28.777Z,6.97
2019-03-21T01:16:00.057Z,7.28
2019-03-21T01:18:30.820Z,8.50
2019-03-21T01:21:01.528Z,6.75
2019-03-21T01:23:32.225Z,9.68
2019-03-21T01:26:03.285Z,8.68
2019-03-21T01:28:33.987Z,7.47
2019-03-21T01:31:05.416Z,8.15
2019-03-21T01:33:36.096Z,7.43
2019-03-21T01:36:07.033Z,8.30
2019-03-21T01:38:37.761Z,9.00
2019-03-21T01:41:08.573Z,8.73
2019-03-21T01:43:39.366Z,8.80
2019-03-21T01:46:12.069Z,8.83
2019-03-21T01:48:43.161Z,9.00
2019-03-21T01:51:14.029Z,9.50
2019-03-21T01:53:44.741Z,8.35
2019-03-21T01:56:15.457Z,8.75
2019-03-21T01:58:46.227Z,8.20
2019-03-21T02:01:17.163Z,9.00
2019-03-21T02:03:47.888Z,9.10
2019-03-21T02:06:18.628Z,9.35
2019-03-21T02:08:49.433Z,7.83
2019-03-21T02:11:20.294Z,7.97
2019-03-21T02:13:51.002Z,8.53
2019-03-21T02:16:21.750Z,9.35
2019-03-21T02:18:52.509Z,9.10
2019-03-21T02:21:23.251Z,8.23
2019-03-21T02:23:54.113Z,9.58
2019-03-21T02:26:24.838Z,8.70
2019-03-21T02:28:55.559Z,8.98
2019-03-21T02:31:26.304Z,9.80
2019-03-21T02:33:57.027Z,9.10
2019-03-21T02:36:27.747Z,10.03
2019-03-21T02:38:58.451Z,8.60
2019-03-21T02:41:30.019Z,8.95
2019-03-21T02:44:00.734Z,9.53
2019-03-21T02:46:31.415Z,8.95
2019-03-21T02:49:02.135Z,8.63
2019-03-21T02:51:33.019Z,10.10
2019-03-21T02:54:03.729Z,8.90
2019-03-21T02:56:34.426Z,9.10
2019-03-21T02:59:05.477Z,10.63
2019-03-21T03:01:36.423Z,9.35
2019-03-21T03:04:07.247Z,8.83
2019-03-21T03:06:37.980Z,8.60
2019-03-21T03:09:10.046Z,8.98
2019-03-21T03:11:41.575Z,8.33
2019-03-21T03:14:12.543Z,8.73
2019-03-21T03:16:43.588Z,9.43
2019-03-21T03:19:14.275Z,9.05
2019-03-21T03:21:48.261Z,7.80
2019-03-21T03:24:21.059Z,10.00
2019-03-21T03:26:51.874Z,8.90
2019-03-21T03:29:22.629Z,9.13
2019-03-21T03:31:53.395Z,8.83
2019-03-21T03:34:24.226Z,8.88
2019-03-21T03:36:55.123Z,8.65
2019-03-21T03:39:26.700Z,9.15
2019-03-21T03:41:57.660Z,10.15
2019-03-21T03:44:28.517Z,9.40
2019-03-21T03:46:59.282Z,9.13
2019-03-21T03:49:30.027Z,8.25
2019-03-21T03:52:00.783Z,8.78
2019-03-21T03:54:31.700Z,8.80
2019-03-21T03:57:02.607Z,8.03
2019-03-21T03:59:33.353Z,9.05
2019-03-21T04:02:04.297Z,9.45
2019-03-21T04:04:35.117Z,8.75
2019-03-21T04:07:05.881Z,8.93
2019-03-21T04:09:36.818Z,9.65
2019-03-21T04:12:07.636Z,9.65
2019-03-21T04:14:38.380Z,10.23
2019-03-21T04:17:09.120Z,8.43
2019-03-21T04:19:40.253Z,9.83
2019-03-21T04:22:11.175Z,8.55
2019-03-21T04:24:41.905Z,10.25
2019-03-21T04:27:12.894Z,9.43
2019-03-21T04:29:43.778Z,9.25
2019-03-21T04:32:14.913Z,8.03
2019-03-21T04:34:46.012Z,8.93
2019-03-21T04:37:16.848Z,8.63
2019-03-21T04:39:47.636Z,11.85
2019-03-21T04:42:18.718Z,10.85
2019-03-21T04:44:49.478Z,11.70
2019-03-21T04:47:21.019Z,12.40
2019-03-21T04:49:51.763Z,8.75
2019-03-21T04:52:22.968Z,11.35
2019-03-21T04:54:53.781Z,12.90
2019-03-21T04:57:24.858Z,10.95
2019-03-21T04:59:55.694Z,9.73
2019-03-21T05:02:26.495Z,10.48
2019-03-21T05:04:57.249Z,10.40
2019-03-21T05:07:28.350Z,10.88
2019-03-21T05:09:59.898Z,11.03
2019-03-21T05:12:30.769Z,11.03
2019-03-21T05:15:01.600Z,10.68
2019-03-21T05:17:32.369Z,12.35
2019-03-21T05:20:03.160Z,10.75
2019-03-21T05:22:36.751Z,9.98
2019-03-21T05:25:09.450Z,10.50
2019-03-21T05:27:40.317Z,10.58
2019-03-21T05:30:16.019Z,10.95
2019-03-21T05:32:47.266Z,11.48
2019-03-21T05:35:18.102Z,8.88
2019-03-21T05:37:48.935Z,9.50
2019-03-21T05:40:19.801Z,12.20
2019-03-21T05:42:59.870Z,12.13
2019-03-21T05:45:30.658Z,11.03
2019-03-21T05:48:01.403Z,10.43
2019-03-21T05:50:32.154Z,9.73
2019-03-21T05:53:02.969Z,10.35
2019-03-21T05:55:33.719Z,10.15
2019-03-21T05:58:04.622Z,9.47
2019-03-21T06:00:39.896Z,10.88
2019-03-21T06:03:18.877Z,10.75
2019-03-21T06:05:58.671Z,10.15
2019-03-21T06:08:33.615Z,10.35
2019-03-21T06:11:04.702Z,9.40
2019-03-21T06:13:35.953Z,11.18
2019-03-21T06:16:10.680Z,9.83
2019-03-21T06:19:15.590Z,10.03
2019-03-21T06:21:54.648Z,12.82
2019-03-21T06:25:24.577Z,11.30
2019-03-21T06:27:55.403Z,10.43
2019-03-21T06:30:26.229Z,9.57
2019-03-21T06:32:57.069Z,7.00
2019-03-21T06:35:27.764Z,7.53
2019-03-21T06:37:58.999Z,8.87
2019-03-21T06:40:30.004Z,8.93
2019-03-21T06:43:01.140Z,8.67
2019-03-21T06:45:31.890Z,8.70
2019-03-21T06:48:02.699Z,9.63
2019-03-21T06:50:33.491Z,8.93
2019-03-21T06:53:04.693Z,7.97
2019-03-21T06:55:35.465Z,10.30
2019-03-21T06:58:06.311Z,10.20
2019-03-21T07:00:37.394Z,9.60
2019-03-21T07:03:08.148Z,10.40
2019-03-21T07:05:38.946Z,12.00
2019-03-21T07:08:09.707Z,9.67
2019-03-21T07:10:40.447Z,10.90
2019-03-21T07:13:11.309Z,9.13
2019-03-21T07:15:42.192Z,9.87
2019-03-21T07:18:12.909Z,10.00
2019-03-21T07:20:43.755Z,9.37
2019-03-21T07:23:14.498Z,9.47
2019-03-21T07:25:45.405Z,10.13
2019-03-21T07:28:16.557Z,10.33
2019-03-21T07:30:47.293Z,11.53
2019-03-21T07:33:18.348Z,11.60
2019-03-21T07:35:49.113Z,10.83
2019-03-21T07:38:19.871Z,10.23
2019-03-21T07:40:50.676Z,10.70
2019-03-21T07:43:22.458Z,11.20
2019-03-21T07:45:53.268Z,12.00
2019-03-21T07:48:23.980Z,11.53
2019-03-21T07:50:54.715Z,12.20
2019-03-21T07:53:25.524Z,11.63
2019-03-21T07:55:56.278Z,11.63
2019-03-21T07:58:27.126Z,12.40
2019-03-21T08:00:57.975Z,13.13
2019-03-21T08:03:28.801Z,12.73
2019-03-21T08:05:59.864Z,11.43
2019-03-21T08:08:30.674Z,11.23
2019-03-21T08:11:01.419Z,11.50
2019-03-21T08:13:32.511Z,11.07
2019-03-21T08:16:03.245Z,11.53
2019-03-21T08:18:33.960Z,11.00
2019-03-21T08:21:05.192Z,11.23
2019-03-21T08:23:36.014Z,11.70
2019-03-21T08:26:06.758Z,10.83
2019-03-21T08:28:37.568Z,10.90
2019-03-21T08:31:33.177Z,10.10
2019-03-21T08:34:04.124Z,10.07
2019-03-21T08:36:34.929Z,10.60
2019-03-21T08:39:09.168Z,10.30
2019-03-21T08:41:40.275Z,9.37
2019-03-21T08:44:11.590Z,10.77
2019-03-21T08:46:42.318Z,9.83
2019-03-21T08:49:13.126Z,9.47
2019-03-21T08:51:43.937Z,9.00
2019-03-21T08:54:14.722Z,9.83
2019-03-21T08:56:45.663Z,10.37
2019-03-21T08:59:17.089Z,10.90
2019-03-21T09:01:47.816Z,10.67
2019-03-21T09:04:18.546Z,11.60
2019-03-21T09:06:49.405Z,8.50
2019-03-21T09:09:20.193Z,8.00
2019-03-21T09:11:51.020Z,9.30
2019-03-21T09:14:21.760Z,8.40
2019-03-21T09:16:52.504Z,8.80
2019-03-21T09:19:23.379Z,8.77
2019-03-21T09:21:54.131Z,7.30
2019-03-21T09:24:25.034Z,7.80
2019-03-21T09:26:55.868Z,7.93
2019-03-21T09:29:26.628Z,7.30
2019-03-21T09:31:57.578Z,8.90
2019-03-21T09:34:28.347Z,10.60
2019-03-21T09:36:59.076Z,8.13
2019-03-21T09:39:29.800Z,9.10
2019-03-21T09:42:00.804Z,8.43
2019-03-21T09:44:31.738Z,7.50
2019-03-21T09:47:02.495Z,8.80
2019-03-21T09:49:33.266Z,6.40
2019-03-21T09:52:04.054Z,5.67
2019-03-21T09:54:34.820Z,4.87
2019-03-21T09:57:05.696Z,4.77
2019-03-21T09:59:36.427Z,5.93
2019-03-21T10:02:07.210Z,5.00
2019-03-21T10:04:37.928Z,4.60
2019-03-21T10:07:09.320Z,5.90
2019-03-21T10:09:40.082Z,4.80
2019-03-21T10:12:11.930Z,4.70
2019-03-21T10:14:42.732Z,5.33
2019-03-21T10:17:13.533Z,5.40
2019-03-21T10:19:44.784Z,4.70
2019-03-21T10:22:15.581Z,5.13
2019-03-21T10:24:46.306Z,5.70
2019-03-21T10:27:17.031Z,4.73
2019-03-21T10:29:47.759Z,5.40
2019-03-21T10:32:18.644Z,4.60
2019-03-21T10:34:49.387Z,4.50
2019-03-21T10:37:20.111Z,4.50
2019-03-21T10:39:50.861Z,4.97
2019-03-21T10:42:21.578Z,5.90
2019-03-21T10:44:52.344Z,5.20
2019-03-21T10:47:23.057Z,5.50
2019-03-21T10:49:53.911Z,4.30
2019-03-21T10:52:24.991Z,5.20
2019-03-21T10:54:55.781Z,5.27
2019-03-21T10:57:26.516Z,4.90
2019-03-21T10:59:57.366Z,4.70
2019-03-21T11:02:28.104Z,4.30
2019-03-21T11:04:58.934Z,4.73
2019-03-21T11:07:30.254Z,3.97
2019-03-21T11:10:01.018Z,3.80
2019-03-21T11:12:31.806Z,4.40
2019-03-21T11:15:02.582Z,3.60
2019-03-21T11:17:33.594Z,3.97
2019-03-21T11:20:04.638Z,4.13
2019-03-21T11:22:35.366Z,3.70
2019-03-21T11:25:06.556Z,3.37
2019-03-21T11:27:37.710Z,4.30
2019-03-21T11:30:16.036Z,3.77
2019-03-21T11:32:41.681Z,4.37
2019-03-21T11:35:12.425Z,4.13
2019-03-21T11:37:43.492Z,4.23
2019-03-21T11:40:14.439Z,4.20
2019-03-21T11:42:45.460Z,4.10
2019-03-21T11:45:16.315Z,4.63
2019-03-21T11:47:47.118Z,3.80
2019-03-21T11:50:18.006Z,4.70
2019-03-21T11:52:49.624Z,4.70
2019-03-21T11:55:20.646Z,4.57
2019-03-21T11:57:51.511Z,4.97
2019-03-21T12:00:22.325Z,4.50
2019-03-21T12:02:53.072Z,4.90
2019-03-21T12:05:23.826Z,5.40
2019-03-21T12:07:54.706Z,4.27
2019-03-21T12:10:25.688Z,5.33
2019-03-21T12:12:56.733Z,4.20
2019-03-21T12:15:27.573Z,5.00
2019-03-21T12:17:58.388Z,5.27
2019-03-21T12:20:34.114Z,6.07
2019-03-21T12:23:05.196Z,5.07
2019-03-21T12:25:36.244Z,4.67
2019-03-21T12:28:07.129Z,5.17
2019-03-21T12:30:40.240Z,5.07
2019-03-21T12:33:12.042Z,4.03
2019-03-21T12:35:43.125Z,4.50
2019-03-21T12:38:14.085Z,5.30
2019-03-21T12:40:44.907Z,4.53
2019-03-21T12:43:15.648Z,6.30
2019-03-21T12:45:46.407Z,4.50
2019-03-21T12:48:17.210Z,5.60
2019-03-21T12:50:47.965Z,6.27
2019-03-21T12:53:18.678Z,5.30
2019-03-21T12:55:49.404Z,4.50
2019-03-21T12:58:20.796Z,5.13
2019-03-21T13:00:51.531Z,6.60
2019-03-21T13:03:22.252Z,5.77
2019-03-21T13:05:53.011Z,5.00
2019-03-21T13:08:33.276Z,5.20
2019-03-21T13:10:56.252Z,5.67
2019-03-21T13:13:27.101Z,4.60
2019-03-21T13:15:58.064Z,5.30
2019-03-21T13:18:28.788Z,5.10
2019-03-21T13:20:59.737Z,4.90
2019-03-21T13:23:30.547Z,3.87
2019-03-21T13:26:01.297Z,4.37
2019-03-21T13:28:32.888Z,5.70
2019-03-21T13:31:04.303Z,4.77
2019-03-21T13:33:35.037Z,5.73
2019-03-21T13:36:05.992Z,5.13
2019-03-21T13:38:36.721Z,4.60
2019-03-21T13:41:07.531Z,4.73
2019-03-21T13:43:38.243Z,5.50
2019-03-21T13:46:09.062Z,5.30
2019-03-21T13:48:39.750Z,5.20
2019-03-21T13:51:10.958Z,6.20
2019-03-21T13:53:41.740Z,5.47
2019-03-21T13:56:12.569Z,6.40
2019-03-21T13:58:46.581Z,5.60
2019-03-21T14:01:16.683Z,5.40
2019-03-21T14:03:47.854Z,5.40
2019-03-21T14:06:18.688Z,5.87
2019-03-21T14:08:49.509Z,6.10
2019-03-21T14:11:20.274Z,6.10
2019-03-21T14:13:51.097Z,5.90
2019-03-21T14:16:21.913Z,6.27
2019-03-21T14:18:52.622Z,5.87
2019-03-21T14:21:23.439Z,6.70
2019-03-21T14:23:54.349Z,4.77
2019-03-21T14:26:25.352Z,5.50
2019-03-21T14:28:56.106Z,4.80
2019-03-21T14:31:26.862Z,4.30
2019-03-21T14:33:57.858Z,4.80
2019-03-21T14:36:28.743Z,5.40
2019-03-21T14:38:59.551Z,4.90
2019-03-21T14:41:30.297Z,4.33
2019-03-21T14:44:01.859Z,4.43
2019-03-21T14:46:32.682Z,4.07
2019-03-21T14:49:04.105Z,4.20
2019-03-21T14:51:35.675Z,5.03
2019-03-21T14:54:06.533Z,5.10
2019-03-21T14:56:38.066Z,4.20
2019-03-21T14:59:08.819Z,4.73
2019-03-21T15:01:40.747Z,4.17
2019-03-21T15:04:11.680Z,4.80
2019-03-21T15:06:42.420Z,4.70
2019-03-21T15:09:13.122Z,4.90
2019-03-21T15:11:44.062Z,4.80
2019-03-21T15:14:14.829Z,4.33
2019-03-21T15:16:46.265Z,4.30
2019-03-21T15:19:17.118Z,3.73
2019-03-21T15:21:47.860Z,4.73
2019-03-21T15:24:18.662Z,3.83
2019-03-21T15:26:51.166Z,3.87
2019-03-21T15:29:22.451Z,4.07
2019-03-21T15:31:53.164Z,5.30
2019-03-21T15:34:24.168Z,4.17
2019-03-21T15:36:54.910Z,4.43
2019-03-21T15:39:25.648Z,4.07
2019-03-21T15:41:56.431Z,4.27
2019-03-21T15:44:27.181Z,4.70
2019-03-21T15:46:57.971Z,3.80
2019-03-21T15:49:28.788Z,4.77
2019-03-21T15:51:59.509Z,4.80
2019-03-21T15:54:30.271Z,4.43
2019-03-21T15:57:01.248Z,4.80
2019-03-21T15:59:32.026Z,5.13
2019-03-21T16:02:02.936Z,4.40
2019-03-21T16:04:33.666Z,4.20
2019-03-21T16:07:04.380Z,4.17
2019-03-21T16:09:35.126Z,5.10
2019-03-21T16:12:05.949Z,4.47
2019-03-21T16:14:36.663Z,3.70
2019-03-21T16:17:07.404Z,4.20
2019-03-21T16:19:38.176Z,3.47
2019-03-21T16:22:09.103Z,3.47
2019-03-21T16:24:40.381Z,5.87
2019-03-21T16:27:11.127Z,3.63
2019-03-21T16:29:42.204Z,4.10
2019-03-21T16:32:13.001Z,3.87
2019-03-21T16:34:43.992Z,3.90
2019-03-21T16:37:14.737Z,6.17
2019-03-21T16:39:45.469Z,4.17
2019-03-21T16:42:16.215Z,4.50
2019-03-21T16:44:47.040Z,4.10
2019-03-21T16:47:17.755Z,4.30
2019-03-21T16:49:48.681Z,5.20
2019-03-21T16:52:19.914Z,3.90
2019-03-21T16:54:50.686Z,4.13
2019-03-21T16:57:21.419Z,3.80
2019-03-21T16:59:52.989Z,4.73
2019-03-21T17:02:24.502Z,7.40
2019-03-21T17:04:55.236Z,3.70
2019-03-21T17:07:25.976Z,4.70
2019-03-21T17:09:58.066Z,4.80
2019-03-21T17:12:29.280Z,4.30
2019-03-21T17:15:00.703Z,4.80
2019-03-21T17:17:31.497Z,4.63
2019-03-21T17:20:03.722Z,4.60
2019-03-21T17:22:34.606Z,3.83
2019-03-21T17:25:06.154Z,4.43
2019-03-21T17:27:37.427Z,3.80
2019-03-21T17:30:09.960Z,4.43
2019-03-21T17:32:40.711Z,5.70
2019-03-21T17:35:11.797Z,4.23
2019-03-21T17:37:43.115Z,4.80
2019-03-21T17:40:14.826Z,5.13
2019-03-21T17:42:45.616Z,4.80
2019-03-21T17:45:17.351Z,3.37
2019-03-21T17:47:48.480Z,4.30
2019-03-21T17:50:19.665Z,4.37
2019-03-21T17:52:50.805Z,4.30
2019-03-21T17:55:21.624Z,4.70
2019-03-21T17:57:52.439Z,4.67
2019-03-21T18:00:25.074Z,4.30
2019-03-21T18:02:57.124Z,5.27
2019-03-21T18:05:28.635Z,6.20
2019-03-21T18:07:59.477Z,6.07
2019-03-21T18:10:31.921Z,7.90
2019-03-21T18:13:03.115Z,8.43
2019-03-21T18:15:34.510Z,11.73
2019-03-21T18:18:05.674Z,12.60
2019-03-21T18:20:36.873Z,9.23
2019-03-21T18:23:07.743Z,6.63
2019-03-21T18:25:38.601Z,5.00
2019-03-21T18:28:09.422Z,8.43
2019-03-21T18:30:40.219Z,6.70
2019-03-21T18:33:11.518Z,5.67
2019-03-21T18:35:42.319Z,7.23
2019-03-21T18:38:13.069Z,9.27
2019-03-21T18:40:43.954Z,12.63
2019-03-21T18:43:14.639Z,12.93
2019-03-21T18:45:45.600Z,14.70
2019-03-21T18:48:16.665Z,11.43
2019-03-21T18:50:47.509Z,8.07
2019-03-21T18:53:18.278Z,9.63
2019-03-21T18:55:49.192Z,8.97
2019-03-21T18:58:20.010Z,8.03
2019-03-21T19:00:51.496Z,7.27
2019-03-21T19:03:22.293Z,4.83
2019-03-21T19:05:53.291Z,5.93
2019-03-21T19:08:24.362Z,7.30
2019-03-21T19:10:55.362Z,7.30
2019-03-21T19:13:26.232Z,9.47
2019-03-21T19:15:57.066Z,22.77
2019-03-21T19:18:27.947Z,12.00
2019-03-21T19:20:58.689Z,9.73
2019-03-21T19:23:29.518Z,10.07
2019-03-21T19:26:00.466Z,9.60
2019-03-21T19:28:31.232Z,8.30
2019-03-21T19:31:01.979Z,7.90
2019-03-21T19:33:32.757Z,7.17
2019-03-21T19:36:03.599Z,7.50
2019-03-21T19:38:34.321Z,12.83
2019-03-21T19:41:05.510Z,10.33
2019-03-21T19:43:36.215Z,8.70
2019-03-21T19:46:07.132Z,8.10
2019-03-21T19:48:45.672Z,7.53
2019-03-21T19:51:15.712Z,6.90
2019-03-21T19:53:50.454Z,6.43
2019-03-21T19:56:21.738Z,6.57
2019-03-21T19:58:56.140Z,8.30
2019-03-21T20:01:27.053Z,6.60
2019-03-21T20:04:00.493Z,7.20
2019-03-21T20:06:32.027Z,5.87
2019-03-21T20:09:03.129Z,6.27
2019-03-21T20:11:34.104Z,6.93
2019-03-21T20:14:16.248Z,7.40
2019-03-21T20:17:29.165Z,9.43
2019-03-21T20:20:00.170Z,6.10
2019-03-21T20:22:37.714Z,6.63
2019-03-21T20:25:07.152Z,7.20
2019-03-21T20:27:38.414Z,9.67
2019-03-21T20:30:12.012Z,8.00
2019-03-21T20:32:43.251Z,7.90
2019-03-21T20:35:15.420Z,9.30
2019-03-21T20:38:10.144Z,8.17
2019-03-21T20:40:41.587Z,8.60
2019-03-21T20:43:14.922Z,6.70
2019-03-21T20:45:49.257Z,7.90
2019-03-21T20:48:27.917Z,8.17
2019-03-21T20:51:32.793Z,8.10
2019-03-21T20:54:15.602Z,8.93
2019-03-21T20:56:52.746Z,9.90
2019-03-21T21:03:04.206Z,9.40
2019-03-21T21:05:35.922Z,9.63
2019-03-21T21:08:09.862Z,9.50
2019-03-21T21:10:52.398Z,10.23
2019-03-21T21:13:39.081Z,9.50
2019-03-21T21:16:31.853Z,9.70
2019-03-21T21:20:07.907Z,10.40
2019-03-21T21:23:11.176Z,13.93
2019-03-21T21:26:08.864Z,11.40
2019-03-21T21:28:43.933Z,11.27
2019-03-21T21:31:16.142Z,11.53
2019-03-21T21:33:48.569Z,11.10
2019-03-21T21:36:33.933Z,11.03
2019-03-21T21:39:12.779Z,11.10
2019-03-21T21:41:55.814Z,11.10
2019-03-21T21:44:32.085Z,11.47
2019-03-21T21:47:02.881Z,11.33
2019-03-21T21:49:35.763Z,10.97
2019-03-21T21:52:07.171Z,10.10
2019-03-21T21:54:38.004Z,12.10
2019-03-21T21:57:08.827Z,11.63
2019-03-21T21:59:41.004Z,10.30
2019-03-21T22:02:11.850Z,11.10
2019-03-21T22:04:42.996Z,13.03
2019-03-21T22:07:13.840Z,11.23
2019-03-21T22:09:44.875Z,11.43
2019-03-21T22:12:15.710Z,13.17
2019-03-21T22:14:46.589Z,11.87
2019-03-21T22:17:20.473Z,11.70
2019-03-21T22:19:51.228Z,11.83
2019-03-21T22:22:22.033Z,12.60
2019-03-21T22:24:52.895Z,13.00
2019-03-21T22:27:23.766Z,12.73
2019-03-21T22:29:54.631Z,12.20
2019-03-21T22:32:27.630Z,10.93
2019-03-21T22:34:58.463Z,13.93
2019-03-21T22:37:32.468Z,10.87
2019-03-21T22:40:03.283Z,12.43
2019-03-21T22:42:34.209Z,11.50
2019-03-21T22:45:05.854Z,13.00
2019-03-21T22:47:39.130Z,10.67
2019-03-21T22:50:14.748Z,13.20
2019-03-21T22:52:46.495Z,11.47
2019-03-21T22:55:17.980Z,11.60
2019-03-21T22:57:50.843Z,12.03
2019-03-21T23:00:24.697Z,11.03
2019-03-21T23:02:55.515Z,11.70
2019-03-21T23:05:26.427Z,12.00
2019-03-21T23:07:57.212Z,10.53
2019-03-21T23:10:30.408Z,9.70
2019-03-21T23:13:01.196Z,10.07
2019-03-21T23:15:32.035Z,9.50
2019-03-21T23:18:02.856Z,10.07
2019-03-21T23:20:33.726Z,10.90
2019-03-21T23:23:04.553Z,11.73
2019-03-21T23:25:35.346Z,11.10
2019-03-21T23:28:06.249Z,11.33
2019-03-21T23:30:37.166Z,11.50
2019-03-21T23:33:08.138Z,10.50
2019-03-21T23:35:38.895Z,12.07
2019-03-21T23:38:09.741Z,11.50
2019-03-21T23:40:40.682Z,11.00
2019-03-21T23:43:13.065Z,11.73
2019-03-21T23:45:44.041Z,10.80
2019-03-21T23:48:16.081Z,11.63
2019-03-21T23:50:46.875Z,10.87
2019-03-21T23:53:18.425Z,10.30
2019-03-21T23:55:50.843Z,11.00
2019-03-21T23:58:27.418Z,11.07
